sensor_id;sensor_type;location;lat;lon;timestamp;temperature;humidity
42201;DHT22;27869;51.442;7.540;2024-03-02T00:01:24;8.20;99.90
42201;DHT22;27869;51.442;7.540;2024-03-02T00:03:51;8.20;99.90
42201;DHT22;27869;51.442;7.540;2024-03-02T00:06:20;8.20;99.90
42201;DHT22;27869;51.442;7.540;2024-03-02T00:08:47;8.20;99.90
42201;DHT22;27869;51.442;7.540;2024-03-02T00:11:16;8.20;99.90
42201;DHT22;27869;51.442;7.540;2024-03-02T00:13:44;8.30;99.90
42201;DHT22;27869;51.442;7.540;2024-03-02T00:16:15;8.30;99.90
42201;DHT22;27869;51.442;7.540;2024-03-02T00:18:44;8.30;99.90
42201;DHT22;27869;51.442;7.540;2024-03-02T00:21:11;8.30;99.90
42201;DHT22;27869;51.442;7.540;2024-03-02T00:23:40;8.30;99.90
42201;DHT22;27869;51.442;7.540;2024-03-02T00:26:07;8.30;99.90
42201;DHT22;27869;51.442;7.540;2024-03-02T00:28:40;8.30;99.90
42201;DHT22;27869;51.442;7.540;2024-03-02T00:31:10;8.30;99.90
42201;DHT22;27869;51.442;7.540;2024-03-02T00:33:41;8.30;99.90
42201;DHT22;27869;51.442;7.540;2024-03-02T00:36:09;8.20;99.90
42201;DHT22;27869;51.442;7.540;2024-03-02T00:38:44;8.20;99.90
42201;DHT22;27869;51.442;7.540;2024-03-02T00:41:19;8.20;99.90
42201;DHT22;27869;51.442;7.540;2024-03-02T00:43:56;8.20;99.90
42201;DHT22;27869;51.442;7.540;2024-03-02T00:46:23;8.20;99.90
42201;DHT22;27869;51.442;7.540;2024-03-02T00:48:55;8.20;99.90
42201;DHT22;27869;51.442;7.540;2024-03-02T00:51:23;8.20;99.90
42201;DHT22;27869;51.442;7.540;2024-03-02T00:53:51;8.20;99.90
42201;DHT22;27869;51.442;7.540;2024-03-02T00:56:19;8.20;99.90
42201;DHT22;27869;51.442;7.540;2024-03-02T00:58:46;8.30;99.90
42201;DHT22;27869;51.442;7.540;2024-03-02T01:01:14;8.30;99.90
42201;DHT22;27869;51.442;7.540;2024-03-02T01:03:41;8.30;99.90
42201;DHT22;27869;51.442;7.540;2024-03-02T01:06:09;8.30;99.90
42201;DHT22;27869;51.442;7.540;2024-03-02T01:08:36;8.30;99.90
42201;DHT22;27869;51.442;7.540;2024-03-02T01:11:03;8.30;99.90
42201;DHT22;27869;51.442;7.540;2024-03-02T01:13:30;8.30;99.90
42201;DHT22;27869;51.442;7.540;2024-03-02T01:16:00;8.30;99.90
42201;DHT22;27869;51.442;7.540;2024-03-02T01:18:29;8.30;99.90
42201;DHT22;27869;51.442;7.540;2024-03-02T01:20:56;8.20;99.90
42201;DHT22;27869;51.442;7.540;2024-03-02T01:23:23;8.20;99.90
42201;DHT22;27869;51.442;7.540;2024-03-02T01:25:51;8.30;99.90
42201;DHT22;27869;51.442;7.540;2024-03-02T01:28:18;8.20;99.90
42201;DHT22;27869;51.442;7.540;2024-03-02T01:30:46;8.20;99.90
42201;DHT22;27869;51.442;7.540;2024-03-02T01:33:13;8.20;99.90
42201;DHT22;27869;51.442;7.540;2024-03-02T01:35:41;8.20;99.90
42201;DHT22;27869;51.442;7.540;2024-03-02T01:38:08;8.20;99.90
42201;DHT22;27869;51.442;7.540;2024-03-02T01:40:36;8.20;99.90
42201;DHT22;27869;51.442;7.540;2024-03-02T01:43:04;8.20;99.90
42201;DHT22;27869;51.442;7.540;2024-03-02T01:45:31;8.30;99.90
42201;DHT22;27869;51.442;7.540;2024-03-02T01:47:58;8.30;99.90
42201;DHT22;27869;51.442;7.540;2024-03-02T01:50:26;8.30;99.90
42201;DHT22;27869;51.442;7.540;2024-03-02T01:52:55;8.30;99.90
42201;DHT22;27869;51.442;7.540;2024-03-02T01:55:22;8.30;99.90
42201;DHT22;27869;51.442;7.540;2024-03-02T01:57:50;8.30;99.90
42201;DHT22;27869;51.442;7.540;2024-03-02T02:00:18;8.30;99.90
42201;DHT22;27869;51.442;7.540;2024-03-02T02:02:46;8.40;99.90
42201;DHT22;27869;51.442;7.540;2024-03-02T02:05:14;8.40;99.90
42201;DHT22;27869;51.442;7.540;2024-03-02T02:07:41;8.40;99.90
42201;DHT22;27869;51.442;7.540;2024-03-02T02:10:10;8.40;99.90
42201;DHT22;27869;51.442;7.540;2024-03-02T02:12:37;8.40;99.90
42201;DHT22;27869;51.442;7.540;2024-03-02T02:17:46;8.40;99.90
42201;DHT22;27869;51.442;7.540;2024-03-02T02:20:13;8.40;99.90
42201;DHT22;27869;51.442;7.540;2024-03-02T02:22:54;8.40;99.90
42201;DHT22;27869;51.442;7.540;2024-03-02T02:25:20;8.40;99.90
42201;DHT22;27869;51.442;7.540;2024-03-02T02:27:47;8.40;99.90
42201;DHT22;27869;51.442;7.540;2024-03-02T02:30:18;8.40;99.90
42201;DHT22;27869;51.442;7.540;2024-03-02T02:32:45;8.50;99.90
42201;DHT22;27869;51.442;7.540;2024-03-02T02:35:12;8.50;99.90
42201;DHT22;27869;51.442;7.540;2024-03-02T02:37:39;8.50;99.90
42201;DHT22;27869;51.442;7.540;2024-03-02T02:40:09;8.40;99.90
42201;DHT22;27869;51.442;7.540;2024-03-02T02:42:36;8.40;99.90
42201;DHT22;27869;51.442;7.540;2024-03-02T02:45:03;8.40;99.90
42201;DHT22;27869;51.442;7.540;2024-03-02T02:47:30;8.40;99.90
42201;DHT22;27869;51.442;7.540;2024-03-02T02:50:00;8.40;99.90
42201;DHT22;27869;51.442;7.540;2024-03-02T02:52:31;8.40;99.90
42201;DHT22;27869;51.442;7.540;2024-03-02T02:54:58;8.40;99.90
42201;DHT22;27869;51.442;7.540;2024-03-02T02:57:27;8.40;99.90
42201;DHT22;27869;51.442;7.540;2024-03-02T02:59:55;8.40;99.90
42201;DHT22;27869;51.442;7.540;2024-03-02T03:02:22;8.40;99.90
42201;DHT22;27869;51.442;7.540;2024-03-02T03:04:49;8.40;99.90
42201;DHT22;27869;51.442;7.540;2024-03-02T03:07:16;8.40;99.90
42201;DHT22;27869;51.442;7.540;2024-03-02T03:09:43;8.40;99.90
42201;DHT22;27869;51.442;7.540;2024-03-02T03:12:10;8.40;99.90
42201;DHT22;27869;51.442;7.540;2024-03-02T03:14:40;8.40;99.90
42201;DHT22;27869;51.442;7.540;2024-03-02T03:17:07;8.40;99.90
42201;DHT22;27869;51.442;7.540;2024-03-02T03:19:34;8.40;99.90
42201;DHT22;27869;51.442;7.540;2024-03-02T03:22:01;8.40;99.90
42201;DHT22;27869;51.442;7.540;2024-03-02T03:24:29;8.40;99.90
42201;DHT22;27869;51.442;7.540;2024-03-02T03:26:55;8.40;99.90
42201;DHT22;27869;51.442;7.540;2024-03-02T03:29:22;8.40;99.90
42201;DHT22;27869;51.442;7.540;2024-03-02T03:31:51;8.40;99.90
42201;DHT22;27869;51.442;7.540;2024-03-02T03:34:18;8.40;99.90
42201;DHT22;27869;51.442;7.540;2024-03-02T03:36:44;8.40;99.90
42201;DHT22;27869;51.442;7.540;2024-03-02T03:39:11;8.40;99.90
42201;DHT22;27869;51.442;7.540;2024-03-02T03:41:40;8.30;99.90
42201;DHT22;27869;51.442;7.540;2024-03-02T03:44:06;8.30;99.90
42201;DHT22;27869;51.442;7.540;2024-03-02T03:46:33;8.30;99.90
42201;DHT22;27869;51.442;7.540;2024-03-02T03:49:01;8.30;99.90
42201;DHT22;27869;51.442;7.540;2024-03-02T03:51:29;8.30;99.90
42201;DHT22;27869;51.442;7.540;2024-03-02T03:53:56;8.30;99.90
42201;DHT22;27869;51.442;7.540;2024-03-02T03:56:23;8.20;99.90
42201;DHT22;27869;51.442;7.540;2024-03-02T03:58:50;8.30;99.90
42201;DHT22;27869;51.442;7.540;2024-03-02T04:01:17;8.30;99.90
42201;DHT22;27869;51.442;7.540;2024-03-02T04:03:45;8.20;99.90
42201;DHT22;27869;51.442;7.540;2024-03-02T04:06:13;8.20;99.90
42201;DHT22;27869;51.442;7.540;2024-03-02T04:08:42;8.20;99.90
42201;DHT22;27869;51.442;7.540;2024-03-02T04:11:08;8.20;99.90
42201;DHT22;27869;51.442;7.540;2024-03-02T04:13:35;8.20;99.90
42201;DHT22;27869;51.442;7.540;2024-03-02T04:16:03;8.20;99.90
42201;DHT22;27869;51.442;7.540;2024-03-02T04:18:30;8.30;99.90
42201;DHT22;27869;51.442;7.540;2024-03-02T04:20:57;8.20;99.90
42201;DHT22;27869;51.442;7.540;2024-03-02T04:23:26;8.20;99.90
42201;DHT22;27869;51.442;7.540;2024-03-02T04:25:53;8.30;99.90
42201;DHT22;27869;51.442;7.540;2024-03-02T04:28:19;8.30;99.90
42201;DHT22;27869;51.442;7.540;2024-03-02T04:30:46;8.30;99.90
42201;DHT22;27869;51.442;7.540;2024-03-02T04:33:13;8.30;99.90
42201;DHT22;27869;51.442;7.540;2024-03-02T04:35:40;8.30;99.90
42201;DHT22;27869;51.442;7.540;2024-03-02T04:38:07;8.20;99.90
42201;DHT22;27869;51.442;7.540;2024-03-02T04:40:35;8.20;99.90
42201;DHT22;27869;51.442;7.540;2024-03-02T04:43:02;8.30;99.90
42201;DHT22;27869;51.442;7.540;2024-03-02T04:45:29;8.20;99.90
42201;DHT22;27869;51.442;7.540;2024-03-02T04:47:56;8.20;99.90
42201;DHT22;27869;51.442;7.540;2024-03-02T04:50:23;8.20;99.90
42201;DHT22;27869;51.442;7.540;2024-03-02T04:52:50;8.20;99.90
42201;DHT22;27869;51.442;7.540;2024-03-02T04:55:17;8.20;99.90
42201;DHT22;27869;51.442;7.540;2024-03-02T04:57:56;8.30;99.90
42201;DHT22;27869;51.442;7.540;2024-03-02T05:00:23;8.20;99.90
42201;DHT22;27869;51.442;7.540;2024-03-02T05:02:50;8.20;99.90
42201;DHT22;27869;51.442;7.540;2024-03-02T05:05:17;8.20;99.90
42201;DHT22;27869;51.442;7.540;2024-03-02T05:07:44;8.20;99.90
42201;DHT22;27869;51.442;7.540;2024-03-02T05:10:11;8.20;99.90
42201;DHT22;27869;51.442;7.540;2024-03-02T05:12:38;8.20;99.90
42201;DHT22;27869;51.442;7.540;2024-03-02T05:15:23;8.20;99.90
42201;DHT22;27869;51.442;7.540;2024-03-02T05:17:49;8.20;99.90
42201;DHT22;27869;51.442;7.540;2024-03-02T05:20:16;8.20;99.90
42201;DHT22;27869;51.442;7.540;2024-03-02T05:22:43;8.20;99.90
42201;DHT22;27869;51.442;7.540;2024-03-02T05:25:10;8.20;99.90
42201;DHT22;27869;51.442;7.540;2024-03-02T05:27:37;8.10;99.90
42201;DHT22;27869;51.442;7.540;2024-03-02T05:30:05;8.10;99.90
42201;DHT22;27869;51.442;7.540;2024-03-02T05:32:34;8.10;99.90
42201;DHT22;27869;51.442;7.540;2024-03-02T05:35:01;8.10;99.90
42201;DHT22;27869;51.442;7.540;2024-03-02T05:37:28;8.10;99.90
42201;DHT22;27869;51.442;7.540;2024-03-02T05:39:55;8.10;99.90
42201;DHT22;27869;51.442;7.540;2024-03-02T05:42:22;8.00;99.90
42201;DHT22;27869;51.442;7.540;2024-03-02T05:44:49;8.00;99.90
42201;DHT22;27869;51.442;7.540;2024-03-02T05:47:16;8.00;99.90
42201;DHT22;27869;51.442;7.540;2024-03-02T05:49:44;8.00;99.90
42201;DHT22;27869;51.442;7.540;2024-03-02T05:52:11;8.00;99.90
42201;DHT22;27869;51.442;7.540;2024-03-02T05:54:38;8.00;99.90
42201;DHT22;27869;51.442;7.540;2024-03-02T05:57:05;7.90;99.90
42201;DHT22;27869;51.442;7.540;2024-03-02T05:59:52;8.00;99.90
42201;DHT22;27869;51.442;7.540;2024-03-02T06:02:19;7.90;99.90
42201;DHT22;27869;51.442;7.540;2024-03-02T06:04:47;7.90;99.90
42201;DHT22;27869;51.442;7.540;2024-03-02T06:07:13;7.90;99.90
42201;DHT22;27869;51.442;7.540;2024-03-02T06:09:41;7.90;99.90
42201;DHT22;27869;51.442;7.540;2024-03-02T06:12:08;7.90;99.90
42201;DHT22;27869;51.442;7.540;2024-03-02T06:14:35;7.80;99.90
42201;DHT22;27869;51.442;7.540;2024-03-02T06:17:02;7.80;99.90
42201;DHT22;27869;51.442;7.540;2024-03-02T06:19:28;7.90;99.90
42201;DHT22;27869;51.442;7.540;2024-03-02T06:21:57;7.80;99.90
42201;DHT22;27869;51.442;7.540;2024-03-02T06:24:24;7.80;99.90
42201;DHT22;27869;51.442;7.540;2024-03-02T06:26:51;7.80;99.90
42201;DHT22;27869;51.442;7.540;2024-03-02T06:29:18;7.80;99.90
42201;DHT22;27869;51.442;7.540;2024-03-02T06:31:45;7.80;99.90
42201;DHT22;27869;51.442;7.540;2024-03-02T06:34:12;7.70;99.90
42201;DHT22;27869;51.442;7.540;2024-03-02T06:36:39;7.70;99.90
42201;DHT22;27869;51.442;7.540;2024-03-02T06:39:09;7.80;99.90
42201;DHT22;27869;51.442;7.540;2024-03-02T06:41:38;7.70;99.90
42201;DHT22;27869;51.442;7.540;2024-03-02T06:44:04;7.70;99.90
42201;DHT22;27869;51.442;7.540;2024-03-02T06:46:32;7.70;99.90
42201;DHT22;27869;51.442;7.540;2024-03-02T06:48:58;7.70;99.90
42201;DHT22;27869;51.442;7.540;2024-03-02T06:51:27;7.70;99.90
42201;DHT22;27869;51.442;7.540;2024-03-02T06:53:54;7.70;99.90
42201;DHT22;27869;51.442;7.540;2024-03-02T06:56:23;7.70;99.90
42201;DHT22;27869;51.442;7.540;2024-03-02T06:58:50;7.80;99.90
42201;DHT22;27869;51.442;7.540;2024-03-02T07:01:17;7.80;99.90
42201;DHT22;27869;51.442;7.540;2024-03-02T07:03:45;7.80;99.90
42201;DHT22;27869;51.442;7.540;2024-03-02T07:06:12;7.80;99.90
42201;DHT22;27869;51.442;7.540;2024-03-02T07:08:39;7.80;99.90
42201;DHT22;27869;51.442;7.540;2024-03-02T07:11:06;7.80;99.90
42201;DHT22;27869;51.442;7.540;2024-03-02T07:13:35;7.80;99.90
42201;DHT22;27869;51.442;7.540;2024-03-02T07:16:02;7.90;99.90
42201;DHT22;27869;51.442;7.540;2024-03-02T07:18:46;7.90;99.90
42201;DHT22;27869;51.442;7.540;2024-03-02T07:21:20;7.90;99.90
42201;DHT22;27869;51.442;7.540;2024-03-02T07:23:47;7.90;99.90
42201;DHT22;27869;51.442;7.540;2024-03-02T07:26:17;8.00;99.90
42201;DHT22;27869;51.442;7.540;2024-03-02T07:28:47;8.00;99.90
42201;DHT22;27869;51.442;7.540;2024-03-02T07:31:14;8.00;99.90
42201;DHT22;27869;51.442;7.540;2024-03-02T07:33:44;8.10;99.90
42201;DHT22;27869;51.442;7.540;2024-03-02T07:36:11;8.10;99.90
42201;DHT22;27869;51.442;7.540;2024-03-02T07:38:38;8.10;99.90
42201;DHT22;27869;51.442;7.540;2024-03-02T07:41:06;8.20;99.90
42201;DHT22;27869;51.442;7.540;2024-03-02T07:43:33;8.20;99.90
42201;DHT22;27869;51.442;7.540;2024-03-02T07:46:01;8.20;99.90
42201;DHT22;27869;51.442;7.540;2024-03-02T07:48:29;8.30;99.90
42201;DHT22;27869;51.442;7.540;2024-03-02T07:50:56;8.30;99.90
42201;DHT22;27869;51.442;7.540;2024-03-02T07:53:23;8.40;99.90
42201;DHT22;27869;51.442;7.540;2024-03-02T07:55:50;8.40;99.90
42201;DHT22;27869;51.442;7.540;2024-03-02T07:58:17;8.50;99.90
42201;DHT22;27869;51.442;7.540;2024-03-02T08:00:45;8.50;99.90
42201;DHT22;27869;51.442;7.540;2024-03-02T08:03:13;8.60;99.90
42201;DHT22;27869;51.442;7.540;2024-03-02T08:05:40;8.60;99.90
42201;DHT22;27869;51.442;7.540;2024-03-02T08:08:07;8.70;99.90
42201;DHT22;27869;51.442;7.540;2024-03-02T08:10:34;8.80;99.90
42201;DHT22;27869;51.442;7.540;2024-03-02T08:13:01;8.80;99.90
42201;DHT22;27869;51.442;7.540;2024-03-02T08:15:28;8.80;99.90
42201;DHT22;27869;51.442;7.540;2024-03-02T08:17:55;8.90;99.90
42201;DHT22;27869;51.442;7.540;2024-03-02T08:20:24;8.90;99.90
42201;DHT22;27869;51.442;7.540;2024-03-02T08:22:51;9.00;99.90
42201;DHT22;27869;51.442;7.540;2024-03-02T08:25:20;9.00;99.90
42201;DHT22;27869;51.442;7.540;2024-03-02T08:27:47;9.10;99.90
42201;DHT22;27869;51.442;7.540;2024-03-02T08:30:14;9.10;99.90
42201;DHT22;27869;51.442;7.540;2024-03-02T08:32:41;9.20;99.90
42201;DHT22;27869;51.442;7.540;2024-03-02T08:35:08;9.20;99.90
42201;DHT22;27869;51.442;7.540;2024-03-02T08:37:39;9.30;99.90
42201;DHT22;27869;51.442;7.540;2024-03-02T08:40:07;9.40;99.90
42201;DHT22;27869;51.442;7.540;2024-03-02T08:42:34;9.40;99.90
42201;DHT22;27869;51.442;7.540;2024-03-02T08:45:01;9.50;99.90
42201;DHT22;27869;51.442;7.540;2024-03-02T08:47:28;9.50;99.90
42201;DHT22;27869;51.442;7.540;2024-03-02T08:49:55;9.60;99.90
42201;DHT22;27869;51.442;7.540;2024-03-02T08:52:22;9.70;99.90
42201;DHT22;27869;51.442;7.540;2024-03-02T08:54:50;9.80;99.90
42201;DHT22;27869;51.442;7.540;2024-03-02T08:57:17;9.80;99.90
42201;DHT22;27869;51.442;7.540;2024-03-02T08:59:44;9.90;99.90
42201;DHT22;27869;51.442;7.540;2024-03-02T09:02:11;10.00;99.90
42201;DHT22;27869;51.442;7.540;2024-03-02T09:04:38;10.00;99.90
42201;DHT22;27869;51.442;7.540;2024-03-02T09:07:05;10.10;99.90
42201;DHT22;27869;51.442;7.540;2024-03-02T09:09:32;10.20;99.90
42201;DHT22;27869;51.442;7.540;2024-03-02T09:12:01;10.30;99.90
42201;DHT22;27869;51.442;7.540;2024-03-02T09:14:28;10.40;99.90
42201;DHT22;27869;51.442;7.540;2024-03-02T09:16:55;10.40;99.90
42201;DHT22;27869;51.442;7.540;2024-03-02T09:19:22;10.50;99.90
42201;DHT22;27869;51.442;7.540;2024-03-02T09:21:49;10.60;99.90
42201;DHT22;27869;51.442;7.540;2024-03-02T09:24:16;10.60;99.90
42201;DHT22;27869;51.442;7.540;2024-03-02T09:26:43;10.70;99.90
42201;DHT22;27869;51.442;7.540;2024-03-02T09:29:11;10.70;99.90
42201;DHT22;27869;51.442;7.540;2024-03-02T09:31:39;10.80;99.90
42201;DHT22;27869;51.442;7.540;2024-03-02T09:34:06;10.90;99.90
42201;DHT22;27869;51.442;7.540;2024-03-02T09:36:33;11.00;99.90
42201;DHT22;27869;51.442;7.540;2024-03-02T09:39:00;11.00;99.90
42201;DHT22;27869;51.442;7.540;2024-03-02T09:41:29;11.10;99.90
42201;DHT22;27869;51.442;7.540;2024-03-02T09:43:56;11.20;99.90
42201;DHT22;27869;51.442;7.540;2024-03-02T09:46:25;11.20;99.90
42201;DHT22;27869;51.442;7.540;2024-03-02T09:48:52;11.30;99.90
42201;DHT22;27869;51.442;7.540;2024-03-02T09:51:20;11.40;99.90
42201;DHT22;27869;51.442;7.540;2024-03-02T09:53:47;11.50;99.90
42201;DHT22;27869;51.442;7.540;2024-03-02T09:56:15;11.60;99.90
42201;DHT22;27869;51.442;7.540;2024-03-02T09:58:44;11.60;99.90
42201;DHT22;27869;51.442;7.540;2024-03-02T10:01:11;11.70;99.90
42201;DHT22;27869;51.442;7.540;2024-03-02T10:03:39;11.80;99.90
42201;DHT22;27869;51.442;7.540;2024-03-02T10:06:19;11.80;99.90
42201;DHT22;27869;51.442;7.540;2024-03-02T10:08:46;11.90;99.90
42201;DHT22;27869;51.442;7.540;2024-03-02T10:11:25;11.90;99.90
42201;DHT22;27869;51.442;7.540;2024-03-02T10:14:04;12.10;99.90
42201;DHT22;27869;51.442;7.540;2024-03-02T10:16:34;12.10;99.90
42201;DHT22;27869;51.442;7.540;2024-03-02T10:19:15;12.20;99.90
42201;DHT22;27869;51.442;7.540;2024-03-02T10:21:43;12.30;99.90
42201;DHT22;27869;51.442;7.540;2024-03-02T10:24:10;12.30;99.90
42201;DHT22;27869;51.442;7.540;2024-03-02T10:26:38;12.40;99.90
42201;DHT22;27869;51.442;7.540;2024-03-02T10:29:05;12.40;99.90
42201;DHT22;27869;51.442;7.540;2024-03-02T10:31:32;12.50;99.90
42201;DHT22;27869;51.442;7.540;2024-03-02T10:33:59;12.60;99.90
42201;DHT22;27869;51.442;7.540;2024-03-02T10:36:29;12.60;99.90
42201;DHT22;27869;51.442;7.540;2024-03-02T10:38:56;12.60;99.90
42201;DHT22;27869;51.442;7.540;2024-03-02T10:41:26;12.70;99.90
42201;DHT22;27869;51.442;7.540;2024-03-02T10:43:53;12.80;99.90
42201;DHT22;27869;51.442;7.540;2024-03-02T10:46:27;12.80;99.90
42201;DHT22;27869;51.442;7.540;2024-03-02T10:48:55;12.90;99.90
42201;DHT22;27869;51.442;7.540;2024-03-02T10:51:24;13.00;99.90
42201;DHT22;27869;51.442;7.540;2024-03-02T10:53:52;13.00;99.90
42201;DHT22;27869;51.442;7.540;2024-03-02T10:56:22;13.10;99.90
42201;DHT22;27869;51.442;7.540;2024-03-02T10:58:58;13.10;99.90
42201;DHT22;27869;51.442;7.540;2024-03-02T11:01:29;13.20;99.90
42201;DHT22;27869;51.442;7.540;2024-03-02T11:03:56;13.20;99.90
42201;DHT22;27869;51.442;7.540;2024-03-02T11:06:26;13.30;99.90
42201;DHT22;27869;51.442;7.540;2024-03-02T11:08:58;13.30;99.90
42201;DHT22;27869;51.442;7.540;2024-03-02T11:11:30;13.40;99.90
42201;DHT22;27869;51.442;7.540;2024-03-02T11:14:01;13.50;99.90
42201;DHT22;27869;51.442;7.540;2024-03-02T11:16:34;13.50;99.90
42201;DHT22;27869;51.442;7.540;2024-03-02T11:19:03;13.50;99.90
42201;DHT22;27869;51.442;7.540;2024-03-02T11:21:34;13.60;99.90
42201;DHT22;27869;51.442;7.540;2024-03-02T11:24:28;13.70;99.90
42201;DHT22;27869;51.442;7.540;2024-03-02T11:26:58;13.70;99.90
42201;DHT22;27869;51.442;7.540;2024-03-02T11:29:44;13.80;99.90
42201;DHT22;27869;51.442;7.540;2024-03-02T11:32:16;13.80;99.90
42201;DHT22;27869;51.442;7.540;2024-03-02T11:34:45;13.80;99.90
42201;DHT22;27869;51.442;7.540;2024-03-02T11:37:12;13.90;99.90
42201;DHT22;27869;51.442;7.540;2024-03-02T11:39:42;13.90;99.90
42201;DHT22;27869;51.442;7.540;2024-03-02T11:42:11;14.00;99.90
42201;DHT22;27869;51.442;7.540;2024-03-02T11:44:41;14.00;99.90
42201;DHT22;27869;51.442;7.540;2024-03-02T11:47:10;14.00;99.90
42201;DHT22;27869;51.442;7.540;2024-03-02T11:49:40;14.00;99.90
42201;DHT22;27869;51.442;7.540;2024-03-02T11:52:08;14.10;99.90
42201;DHT22;27869;51.442;7.540;2024-03-02T11:54:37;14.10;99.90
42201;DHT22;27869;51.442;7.540;2024-03-02T11:57:07;14.20;99.90
42201;DHT22;27869;51.442;7.540;2024-03-02T11:59:34;14.20;99.90
42201;DHT22;27869;51.442;7.540;2024-03-02T12:02:02;14.30;99.90
42201;DHT22;27869;51.442;7.540;2024-03-02T12:04:29;14.30;99.90
42201;DHT22;27869;51.442;7.540;2024-03-02T12:06:59;14.40;99.90
42201;DHT22;27869;51.442;7.540;2024-03-02T12:09:29;14.40;99.90
42201;DHT22;27869;51.442;7.540;2024-03-02T12:12:08;14.40;99.90
42201;DHT22;27869;51.442;7.540;2024-03-02T12:14:36;14.40;99.90
42201;DHT22;27869;51.442;7.540;2024-03-02T12:17:04;14.40;99.90
42201;DHT22;27869;51.442;7.540;2024-03-02T12:19:32;14.50;99.90
42201;DHT22;27869;51.442;7.540;2024-03-02T12:21:59;14.50;99.90
42201;DHT22;27869;51.442;7.540;2024-03-02T12:24:28;14.50;99.90
42201;DHT22;27869;51.442;7.540;2024-03-02T12:26:55;14.50;99.90
42201;DHT22;27869;51.442;7.540;2024-03-02T12:29:24;14.60;99.90
42201;DHT22;27869;51.442;7.540;2024-03-02T12:31:52;14.60;99.90
42201;DHT22;27869;51.442;7.540;2024-03-02T12:34:19;14.60;99.90
42201;DHT22;27869;51.442;7.540;2024-03-02T12:36:46;14.60;99.90
42201;DHT22;27869;51.442;7.540;2024-03-02T12:39:15;14.70;99.90
42201;DHT22;27869;51.442;7.540;2024-03-02T12:41:42;14.70;99.90
42201;DHT22;27869;51.442;7.540;2024-03-02T12:44:09;14.70;99.90
42201;DHT22;27869;51.442;7.540;2024-03-02T12:46:37;14.70;99.90
42201;DHT22;27869;51.442;7.540;2024-03-02T12:49:08;14.70;99.90
42201;DHT22;27869;51.442;7.540;2024-03-02T12:51:37;14.70;99.90
42201;DHT22;27869;51.442;7.540;2024-03-02T12:54:06;14.60;99.90
42201;DHT22;27869;51.442;7.540;2024-03-02T12:56:33;14.60;99.90
42201;DHT22;27869;51.442;7.540;2024-03-02T12:59:00;14.60;99.90
42201;DHT22;27869;51.442;7.540;2024-03-02T13:01:27;14.60;99.90
42201;DHT22;27869;51.442;7.540;2024-03-02T13:03:55;14.60;99.90
42201;DHT22;27869;51.442;7.540;2024-03-02T13:06:23;14.60;99.90
42201;DHT22;27869;51.442;7.540;2024-03-02T13:08:50;14.50;99.90
42201;DHT22;27869;51.442;7.540;2024-03-02T13:11:17;14.50;99.90
42201;DHT22;27869;51.442;7.540;2024-03-02T13:13:45;14.50;99.90
42201;DHT22;27869;51.442;7.540;2024-03-02T13:16:12;14.50;99.90
42201;DHT22;27869;51.442;7.540;2024-03-02T13:18:41;14.40;99.90
42201;DHT22;27869;51.442;7.540;2024-03-02T13:21:10;14.40;99.90
42201;DHT22;27869;51.442;7.540;2024-03-02T13:23:37;14.40;99.90
42201;DHT22;27869;51.442;7.540;2024-03-02T13:26:05;14.40;99.90
42201;DHT22;27869;51.442;7.540;2024-03-02T13:28:33;14.40;99.90
42201;DHT22;27869;51.442;7.540;2024-03-02T13:31:00;14.40;99.90
42201;DHT22;27869;51.442;7.540;2024-03-02T13:33:27;14.40;99.90
42201;DHT22;27869;51.442;7.540;2024-03-02T13:35:55;14.40;99.90
42201;DHT22;27869;51.442;7.540;2024-03-02T13:38:24;14.30;99.90
42201;DHT22;27869;51.442;7.540;2024-03-02T13:40:50;14.30;99.90
42201;DHT22;27869;51.442;7.540;2024-03-02T13:43:18;14.30;99.90
42201;DHT22;27869;51.442;7.540;2024-03-02T13:45:45;14.30;99.90
42201;DHT22;27869;51.442;7.540;2024-03-02T13:48:13;14.30;99.90
42201;DHT22;27869;51.442;7.540;2024-03-02T13:50:40;14.30;99.90
42201;DHT22;27869;51.442;7.540;2024-03-02T13:53:07;14.30;99.90
42201;DHT22;27869;51.442;7.540;2024-03-02T13:55:37;14.30;99.90
42201;DHT22;27869;51.442;7.540;2024-03-02T13:58:04;14.20;99.90
42201;DHT22;27869;51.442;7.540;2024-03-02T14:00:31;14.20;99.90
42201;DHT22;27869;51.442;7.540;2024-03-02T14:02:58;14.20;99.90
42201;DHT22;27869;51.442;7.540;2024-03-02T14:05:25;14.20;99.90
42201;DHT22;27869;51.442;7.540;2024-03-02T14:07:52;14.10;99.90
42201;DHT22;27869;51.442;7.540;2024-03-02T14:10:20;14.10;99.90
42201;DHT22;27869;51.442;7.540;2024-03-02T14:12:49;14.10;99.90
42201;DHT22;27869;51.442;7.540;2024-03-02T14:15:16;14.10;99.90
42201;DHT22;27869;51.442;7.540;2024-03-02T14:17:43;14.10;99.90
42201;DHT22;27869;51.442;7.540;2024-03-02T14:20:11;14.10;99.90
42201;DHT22;27869;51.442;7.540;2024-03-02T14:22:39;14.10;99.90
42201;DHT22;27869;51.442;7.540;2024-03-02T14:25:06;14.10;99.90
42201;DHT22;27869;51.442;7.540;2024-03-02T14:27:33;14.10;99.90
42201;DHT22;27869;51.442;7.540;2024-03-02T14:30:03;14.00;99.90
42201;DHT22;27869;51.442;7.540;2024-03-02T14:32:31;14.00;99.90
42201;DHT22;27869;51.442;7.540;2024-03-02T14:34:57;14.00;99.90
42201;DHT22;27869;51.442;7.540;2024-03-02T14:37:24;14.00;99.90
42201;DHT22;27869;51.442;7.540;2024-03-02T14:39:51;14.00;99.90
42201;DHT22;27869;51.442;7.540;2024-03-02T14:42:18;14.00;99.90
42201;DHT22;27869;51.442;7.540;2024-03-02T14:44:45;14.00;99.90
42201;DHT22;27869;51.442;7.540;2024-03-02T14:47:14;14.00;99.90
42201;DHT22;27869;51.442;7.540;2024-03-02T14:49:41;14.00;99.90
42201;DHT22;27869;51.442;7.540;2024-03-02T14:52:09;14.00;99.90
42201;DHT22;27869;51.442;7.540;2024-03-02T14:54:36;14.10;99.90
42201;DHT22;27869;51.442;7.540;2024-03-02T14:57:04;14.10;99.90
42201;DHT22;27869;51.442;7.540;2024-03-02T14:59:31;14.10;99.90
42201;DHT22;27869;51.442;7.540;2024-03-02T15:01:58;14.10;99.90
42201;DHT22;27869;51.442;7.540;2024-03-02T15:04:27;14.10;99.90
42201;DHT22;27869;51.442;7.540;2024-03-02T15:06:53;14.10;99.90
42201;DHT22;27869;51.442;7.540;2024-03-02T15:09:20;14.00;99.90
42201;DHT22;27869;51.442;7.540;2024-03-02T15:11:50;14.00;99.90
42201;DHT22;27869;51.442;7.540;2024-03-02T15:14:17;14.00;99.90
42201;DHT22;27869;51.442;7.540;2024-03-02T15:16:44;14.00;99.90
42201;DHT22;27869;51.442;7.540;2024-03-02T15:19:11;14.00;99.90
42201;DHT22;27869;51.442;7.540;2024-03-02T15:21:39;14.00;99.90
42201;DHT22;27869;51.442;7.540;2024-03-02T15:24:06;14.00;99.90
42201;DHT22;27869;51.442;7.540;2024-03-02T15:26:33;14.00;99.90
42201;DHT22;27869;51.442;7.540;2024-03-02T15:29:00;14.00;99.90
42201;DHT22;27869;51.442;7.540;2024-03-02T15:31:27;14.00;99.90
42201;DHT22;27869;51.442;7.540;2024-03-02T15:33:54;14.00;99.90
42201;DHT22;27869;51.442;7.540;2024-03-02T15:36:24;14.00;99.90
42201;DHT22;27869;51.442;7.540;2024-03-02T15:38:52;14.00;99.90
42201;DHT22;27869;51.442;7.540;2024-03-02T15:41:19;13.90;99.90
42201;DHT22;27869;51.442;7.540;2024-03-02T15:43:46;14.00;99.90
42201;DHT22;27869;51.442;7.540;2024-03-02T15:46:14;14.00;99.90
42201;DHT22;27869;51.442;7.540;2024-03-02T15:48:41;14.00;99.90